Time;durP1;ratioP1;P1;durP2;ratioP2;P2;SDS_P1;SDS_P2;PMS_P1;PMS_P2;Temp;Humidity;BMP_temperature;BMP_pressure;BME280_temperature;BME280_humidity;BME280_pressure;Samples;Min_cycle;Max_cycle;Signal;HPM_P1;HPM_P2
2022/03/04 00:01:54;;;;;;;6.25;5.22;;;17.50;50.90;;;;;;4952013;28;92703;-70
2022/03/04 00:04:20;;;;;;;6.78;5.13;;;17.50;50.90;;;;;;4951596;28;92585;-69
2022/03/04 00:06:46;;;;;;;6.40;5.05;;;17.40;50.90;;;;;;4951974;28;93323;-69
2022/03/04 00:09:11;;;;;;;7.10;5.63;;;17.40;50.90;;;;;;4951272;28;93248;-69
2022/03/04 00:11:37;;;;;;;7.28;5.20;;;17.40;50.90;;;;;;4951154;28;96335;-70
2022/03/04 00:14:03;;;;;;;7.20;5.00;;;17.40;50.80;;;;;;4951994;28;92589;-70
2022/03/04 00:16:29;;;;;;;6.30;4.72;;;17.40;50.80;;;;;;4950913;28;94290;-70
2022/03/04 00:19:09;;;;;;;6.70;5.38;;;17.40;50.90;;;;;;4952350;28;93927;-70
2022/03/04 00:21:48;;;;;;;6.53;5.30;;;17.40;50.90;;;;;;4952757;28;93117;-70
2022/03/04 00:24:18;;;;;;;6.90;4.97;;;17.40;50.90;;;;;;4952659;28;92452;-70
2022/03/04 00:26:45;;;;;;;5.95;5.00;;;17.40;50.80;;;;;;4950693;28;95274;-70
2022/03/04 00:29:11;;;;;;;7.93;5.38;;;17.40;50.80;;;;;;4951637;28;95111;-70
2022/03/04 00:31:38;;;;;;;5.93;4.65;;;17.40;50.80;;;;;;4950880;28;92603;-69
2022/03/04 00:34:07;;;;;;;6.13;5.03;;;17.40;50.80;;;;;;4950996;28;92977;-69
2022/03/04 00:36:36;;;;;;;5.90;4.80;;;17.30;50.70;;;;;;4949996;28;96260;-70
2022/03/04 00:39:06;;;;;;;6.47;4.82;;;17.30;50.80;;;;;;4933443;28;95749;-71
2022/03/04 00:41:32;;;;;;;5.90;4.70;;;17.30;50.60;;;;;;4950854;28;92666;-70
2022/03/04 00:43:57;;;;;;;6.93;4.90;;;17.30;50.80;;;;;;4951003;28;96063;-70
2022/03/04 00:46:23;;;;;;;6.20;4.95;;;17.30;50.70;;;;;;4950180;28;93857;-69
2022/03/04 00:48:49;;;;;;;7.63;5.18;;;17.30;50.60;;;;;;4950837;28;93226;-69
2022/03/04 00:51:14;;;;;;;5.75;4.93;;;17.30;50.60;;;;;;4951368;28;92578;-70
2022/03/04 00:53:42;;;;;;;6.32;5.00;;;17.30;50.60;;;;;;4951179;28;92461;-70
2022/03/04 00:56:08;;;;;;;6.28;4.85;;;17.30;50.80;;;;;;4950840;28;95239;-71
2022/03/04 00:58:35;;;;;;;5.97;4.72;;;17.30;50.60;;;;;;4951118;28;92707;-70
2022/03/04 01:01:01;;;;;;;6.03;5.43;;;17.30;50.50;;;;;;4950362;28;94943;-70
2022/03/04 01:03:27;;;;;;;6.43;4.88;;;17.30;50.50;;;;;;4951202;28;92622;-70
2022/03/04 01:05:53;;;;;;;6.00;5.10;;;17.30;50.60;;;;;;4933645;28;96386;-71
2022/03/04 01:08:19;;;;;;;6.20;5.05;;;17.20;50.40;;;;;;4951206;28;93361;-69
2022/03/04 01:10:45;;;;;;;7.28;4.75;;;17.30;50.50;;;;;;4950938;28;92948;-70
2022/03/04 01:13:11;;;;;;;6.70;4.68;;;17.20;50.40;;;;;;4951201;28;92547;-70
2022/03/04 01:15:36;;;;;;;5.95;4.93;;;17.20;50.40;;;;;;4952427;28;95297;-70
2022/03/04 01:18:03;;;;;;;6.32;4.72;;;17.30;50.40;;;;;;4953292;28;93122;-71
2022/03/04 01:20:31;;;;;;;5.95;4.90;;;17.20;50.40;;;;;;4938893;28;92552;-70
2022/03/04 01:22:57;;;;;;;5.35;4.72;;;17.20;50.30;;;;;;4952808;28;92991;-69
2022/03/04 01:25:23;;;;;;;6.97;5.05;;;17.20;50.30;;;;;;4950144;28;96049;-70
2022/03/04 01:27:49;;;;;;;7.03;5.20;;;17.20;50.30;;;;;;4951544;28;95755;-70
2022/03/04 01:30:14;;;;;;;5.97;4.90;;;17.20;50.30;;;;;;4951371;28;92532;-70
2022/03/04 01:32:40;;;;;;;6.93;5.20;;;17.20;50.30;;;;;;4951697;28;92938;-71
2022/03/04 01:35:08;;;;;;;6.60;5.07;;;17.20;50.30;;;;;;4950307;28;95175;-70
2022/03/04 01:37:34;;;;;;;6.00;4.90;;;17.20;50.20;;;;;;4951372;28;93056;-70
2022/03/04 01:40:00;;;;;;;5.75;4.70;;;17.10;50.20;;;;;;4950712;28;92619;-70
2022/03/04 01:42:25;;;;;;;5.88;5.05;;;17.20;50.20;;;;;;4950876;28;92298;-70
2022/03/04 01:44:51;;;;;;;6.65;4.90;;;17.10;50.20;;;;;;4949620;28;93534;-70
2022/03/04 01:47:17;;;;;;;6.15;5.10;;;17.10;50.10;;;;;;4949918;28;93035;-70
2022/03/04 01:49:43;;;;;;;5.55;4.85;;;17.10;50.10;;;;;;4949091;28;94867;-70
2022/03/04 01:52:09;;;;;;;5.68;5.03;;;17.10;50.10;;;;;;4951852;28;93145;-70
2022/03/04 01:54:36;;;;;;;5.60;5.00;;;17.10;50.10;;;;;;4950647;28;93527;-69
2022/03/04 01:57:02;;;;;;;5.95;4.68;;;17.10;50.00;;;;;;4950412;28;93677;-71
2022/03/04 01:59:28;;;;;;;5.70;4.70;;;17.10;50.00;;;;;;4950593;28;93970;-69
2022/03/04 02:01:54;;;;;;;5.30;4.57;;;17.10;50.00;;;;;;4950377;28;92549;-69
2022/03/04 02:04:20;;;;;;;7.05;4.93;;;17.10;50.00;;;;;;4950313;28;93316;-69
2022/03/04 02:06:46;;;;;;;5.20;4.70;;;17.10;50.00;;;;;;4950272;28;94173;-70
2022/03/04 02:09:13;;;;;;;5.95;4.40;;;17.00;49.90;;;;;;4949604;28;92965;-69
2022/03/04 02:11:43;;;;;;;6.40;4.78;;;17.00;50.00;;;;;;4949759;28;92756;-70
2022/03/04 02:14:10;;;;;;;6.25;4.80;;;17.00;49.90;;;;;;4949402;28;97457;-70
2022/03/04 02:16:44;;;;;;;6.57;5.65;;;17.00;49.90;;;;;;4949921;28;95277;-69
2022/03/04 02:19:10;;;;;;;6.72;5.25;;;17.00;49.80;;;;;;4949925;28;93034;-69
2022/03/04 02:21:36;;;;;;;5.40;4.75;;;17.00;49.80;;;;;;4950041;28;92731;-70
2022/03/04 02:24:04;;;;;;;5.38;4.45;;;17.00;49.90;;;;;;4950696;28;93207;-69
2022/03/04 02:26:29;;;;;;;5.70;4.82;;;17.00;49.90;;;;;;4951300;28;94698;-70
2022/03/04 02:28:56;;;;;;;6.22;5.03;;;17.00;49.80;;;;;;4953595;28;102498;-70
2022/03/04 02:31:22;;;;;;;6.25;4.70;;;17.00;49.80;;;;;;4954981;28;91772;-70
2022/03/04 02:33:49;;;;;;;6.35;5.10;;;17.00;49.80;;;;;;4953197;28;94565;-70
2022/03/04 02:36:15;;;;;;;5.45;4.82;;;17.00;49.80;;;;;;4953137;28;94429;-70
2022/03/04 02:38:41;;;;;;;6.60;5.07;;;16.90;49.80;;;;;;4953172;28;94854;-69
2022/03/04 02:41:07;;;;;;;6.07;5.00;;;16.90;49.70;;;;;;4953911;28;92568;-70
2022/03/04 02:43:32;;;;;;;5.60;4.68;;;16.90;49.70;;;;;;4953314;28;93122;-69
2022/03/04 02:45:58;;;;;;;5.60;4.82;;;16.90;49.80;;;;;;4953452;28;92858;-67
2022/03/04 02:48:24;;;;;;;6.40;5.25;;;16.90;49.70;;;;;;4952678;28;92748;-70
2022/03/04 02:50:50;;;;;;;6.15;4.60;;;16.90;49.70;;;;;;4952443;28;92923;-70
2022/03/04 02:53:15;;;;;;;5.45;4.82;;;16.90;49.70;;;;;;4952933;28;93839;-70
2022/03/04 02:55:43;;;;;;;6.60;5.22;;;16.90;49.70;;;;;;4953196;28;94759;-71
2022/03/04 02:58:09;;;;;;;5.63;4.82;;;16.90;49.70;;;;;;4954111;28;93494;-70
2022/03/04 03:00:36;;;;;;;5.75;5.15;;;16.90;49.70;;;;;;4953429;28;93027;-69
2022/03/04 03:03:01;;;;;;;5.78;5.07;;;16.80;49.50;;;;;;4953245;28;95572;-69
2022/03/04 03:05:27;;;;;;;5.15;4.63;;;16.90;49.60;;;;;;4954838;28;95218;-69
2022/03/04 03:07:52;;;;;;;5.70;4.65;;;16.80;49.60;;;;;;4953772;28;92674;-69
2022/03/04 03:10:18;;;;;;;5.53;4.93;;;16.80;49.50;;;;;;4952814;28;92610;-69
2022/03/04 03:12:43;;;;;;;5.57;4.93;;;16.80;49.50;;;;;;4952728;28;93698;-69
2022/03/04 03:15:10;;;;;;;5.65;5.05;;;16.80;49.50;;;;;;4952898;28;94861;-70
2022/03/04 03:17:37;;;;;;;5.50;4.82;;;16.80;49.50;;;;;;4953696;28;93195;-69
2022/03/04 03:20:06;;;;;;;6.03;4.95;;;16.80;49.50;;;;;;4952837;28;92283;-69
2022/03/04 03:22:31;;;;;;;5.80;5.00;;;16.80;49.50;;;;;;4952997;28;94069;-69
2022/03/04 03:24:57;;;;;;;5.78;4.78;;;16.80;49.50;;;;;;4951938;28;100357;-70
2022/03/04 03:27:24;;;;;;;5.88;4.97;;;16.80;49.50;;;;;;4950502;28;94997;-71
2022/03/04 03:29:49;;;;;;;5.85;5.25;;;16.80;49.50;;;;;;4952083;28;92966;-69
2022/03/04 03:32:15;;;;;;;6.57;5.10;;;16.70;49.40;;;;;;4952546;28;93526;-69
2022/03/04 03:34:41;;;;;;;5.53;4.82;;;16.70;49.30;;;;;;4952081;28;95290;-69
2022/03/04 03:37:09;;;;;;;5.80;4.80;;;16.80;49.40;;;;;;4952633;28;93155;-70
2022/03/04 03:39:36;;;;;;;5.55;4.85;;;16.70;49.30;;;;;;4952064;28;92954;-69
2022/03/04 03:42:02;;;;;;;5.90;5.05;;;16.70;49.40;;;;;;4952955;28;93527;-69
2022/03/04 03:44:27;;;;;;;6.13;4.97;;;16.70;49.30;;;;;;4952205;28;92724;-69
2022/03/04 03:46:53;;;;;;;6.28;4.93;;;16.70;49.30;;;;;;4952168;28;93225;-70
2022/03/04 03:49:19;;;;;;;6.32;4.90;;;16.70;49.30;;;;;;4952486;28;92646;-69
2022/03/04 03:51:44;;;;;;;6.40;5.07;;;16.70;49.30;;;;;;4950289;28;95674;-69
2022/03/04 03:54:10;;;;;;;5.63;4.80;;;16.70;50.30;;;;;;4951775;28;96869;-70
2022/03/04 03:56:38;;;;;;;6.47;5.00;;;16.70;49.40;;;;;;4952105;28;94869;-70
2022/03/04 03:59:03;;;;;;;5.53;4.93;;;16.70;49.30;;;;;;4951587;28;92653;-70
2022/03/04 05:44:10;;;;;;;6.03;4.88;;;16.30;48.70;;;;;;4826753;22;97773;-67
2022/03/04 05:46:35;;;;;;;5.80;5.00;;;16.40;48.90;;;;;;4949921;28;92847;-71
2022/03/04 05:49:02;;;;;;;6.95;5.00;;;16.30;48.70;;;;;;4951116;28;92913;-67
2022/03/04 05:51:28;;;;;;;7.20;5.65;;;16.30;48.70;;;;;;4950304;28;94384;-67
2022/03/04 05:53:55;;;;;;;6.55;5.00;;;16.30;48.70;;;;;;4951093;28;93240;-67
2022/03/04 05:56:22;;;;;;;5.95;5.35;;;16.40;48.70;;;;;;4948977;28;92818;-67
2022/03/04 05:58:49;;;;;;;5.45;4.90;;;16.30;48.70;;;;;;4951278;28;92256;-66
2022/03/04 06:01:14;;;;;;;6.00;5.40;;;16.30;48.70;;;;;;4949583;28;93215;-67
2022/03/04 06:03:40;;;;;;;6.10;5.05;;;16.30;48.70;;;;;;4952969;28;106092;-67
2022/03/04 06:06:09;;;;;;;5.93;5.03;;;16.40;48.70;;;;;;4951668;28;95256;-66
2022/03/04 06:08:34;;;;;;;5.68;5.07;;;16.40;48.60;;;;;;4953514;28;92967;-66
2022/03/04 06:11:00;;;;;;;10.02;5.15;;;16.50;48.50;;;;;;4951748;28;109798;-66
2022/03/04 06:13:27;;;;;;;5.78;4.65;;;16.60;48.50;;;;;;4953681;28;94228;-67
2022/03/04 06:15:53;;;;;;;9.32;4.80;;;16.70;48.60;;;;;;4953857;28;92620;-67
2022/03/04 06:18:19;;;;;;;6.40;4.63;;;16.90;48.50;;;;;;4953144;28;92573;-67
2022/03/04 06:20:45;;;;;;;6.75;4.00;;;17.10;48.30;;;;;;4954423;28;93126;-67
2022/03/04 06:23:11;;;;;;;5.10;4.35;;;17.20;48.10;;;;;;4953587;28;92326;-67
2022/03/04 06:25:37;;;;;;;5.93;4.63;;;17.30;48.00;;;;;;4954809;28;93010;-68
2022/03/04 06:28:04;;;;;;;5.95;4.35;;;17.40;47.60;;;;;;4953779;28;92592;-67
2022/03/04 06:30:32;;;;;;;4.82;3.92;;;17.50;47.40;;;;;;4951927;28;95485;-67
2022/03/04 06:35:44;;;;;;;4.22;3.83;;;17.70;47.20;;;;;;4953213;28;92496;-67
2022/03/04 06:38:11;;;;;;;5.85;4.45;;;17.80;47.10;;;;;;4935579;28;92820;-67
2022/03/04 06:40:37;;;;;;;8.00;4.28;;;17.80;47.20;;;;;;4953460;28;92515;-66
2022/03/04 06:43:04;;;;;;;5.85;4.13;;;17.90;47.00;;;;;;4953055;28;93415;-68
2022/03/04 06:45:30;;;;;;;6.80;4.78;;;17.90;47.00;;;;;;4969767;28;92589;-67
2022/03/04 06:47:56;;;;;;;15.48;4.32;;;18.00;46.90;;;;;;4973122;28;93482;-66
2022/03/04 06:50:21;;;;;;;6.97;5.03;;;18.00;46.80;;;;;;4973009;28;94318;-68
2022/03/04 06:52:47;;;;;;;13.45;5.32;;;18.10;46.40;;;;;;4972266;28;93425;-70
2022/03/04 06:55:12;;;;;;;10.05;5.13;;;18.10;46.10;;;;;;4972161;28;95419;-68
2022/03/04 06:57:39;;;;;;;16.58;5.15;;;18.10;46.90;;;;;;4972508;28;93002;-68
2022/03/04 07:00:10;;;;;;;11.77;5.07;;;18.10;45.90;;;;;;4954061;28;93867;-67
2022/03/04 07:02:37;;;;;;;16.98;4.80;;;18.00;45.90;;;;;;4972553;28;94467;-67
2022/03/04 07:05:04;;;;;;;6.80;4.82;;;18.00;46.10;;;;;;4972544;28;92971;-66
2022/03/04 07:07:29;;;;;;;9.23;4.82;;;18.00;46.10;;;;;;4972336;28;92549;-67
2022/03/04 07:09:55;;;;;;;8.05;4.72;;;18.00;46.30;;;;;;4973189;28;93048;-67
2022/03/04 07:12:21;;;;;;;11.18;4.93;;;18.00;46.40;;;;;;4971922;28;92568;-67
2022/03/04 07:14:47;;;;;;;5.35;4.38;;;18.00;46.60;;;;;;4972643;28;92472;-67
2022/03/04 07:17:12;;;;;;;10.00;4.95;;;17.90;46.60;;;;;;4972057;28;92925;-67
2022/03/04 07:19:38;;;;;;;9.43;5.25;;;17.90;46.80;;;;;;4969550;28;95306;-66
2022/03/04 07:22:04;;;;;;;9.32;4.75;;;17.90;46.90;;;;;;4970452;28;104213;-66
2022/03/04 07:24:29;;;;;;;9.38;4.90;;;17.90;47.00;;;;;;4972018;28;92579;-66
2022/03/04 07:26:56;;;;;;;13.70;5.28;;;17.80;48.20;;;;;;4972555;28;92433;-66
2022/03/04 07:29:22;;;;;;;11.32;5.53;;;17.80;47.40;;;;;;4971616;28;94082;-67
2022/03/04 07:31:48;;;;;;;14.32;5.40;;;17.80;47.50;;;;;;4971283;28;92707;-66
2022/03/04 07:34:14;;;;;;;16.67;5.50;;;17.70;47.60;;;;;;4970829;28;93069;-67
2022/03/04 07:36:39;;;;;;;11.68;5.13;;;17.70;47.70;;;;;;4953638;28;91859;-66
2022/03/04 07:39:05;;;;;;;9.10;5.82;;;17.70;47.80;;;;;;4971868;28;93136;-67
2022/03/04 07:41:30;;;;;;;14.32;5.25;;;17.60;47.90;;;;;;4971881;28;95622;-66
2022/03/04 07:43:56;;;;;;;14.13;6.18;;;17.60;48.10;;;;;;4969286;28;95160;-67
2022/03/04 07:46:22;;;;;;;10.95;5.60;;;17.60;48.20;;;;;;4970968;28;92741;-66
2022/03/04 07:48:47;;;;;;;10.07;5.55;;;17.50;48.20;;;;;;4972069;28;93635;-67
2022/03/04 07:51:13;;;;;;;12.65;5.63;;;17.50;48.30;;;;;;4970973;28;96035;-66
2022/03/04 07:53:39;;;;;;;9.55;5.78;;;17.50;48.30;;;;;;4971170;28;92710;-67
2022/03/04 07:56:05;;;;;;;8.85;5.90;;;17.40;48.40;;;;;;4971650;28;92879;-67
2022/03/04 07:58:32;;;;;;;8.13;5.40;;;17.40;48.40;;;;;;4970729;28;93504;-69
2022/03/04 08:00:57;;;;;;;11.50;5.85;;;17.40;48.50;;;;;;4971803;28;98806;-68
2022/03/04 08:03:23;;;;;;;8.40;6.13;;;17.30;48.40;;;;;;4973025;28;92577;-66
2022/03/04 08:05:48;;;;;;;10.88;6.07;;;17.30;48.60;;;;;;4975634;28;94242;-65
2022/03/04 08:08:14;;;;;;;13.77;6.55;;;17.20;48.60;;;;;;4976406;28;102203;-65
2022/03/04 08:10:39;;;;;;;8.60;5.93;;;17.20;48.70;;;;;;4971586;28;104408;-65
2022/03/04 08:13:05;;;;;;;10.10;5.78;;;17.20;48.60;;;;;;4971712;28;93041;-66
2022/03/04 08:15:30;;;;;;;8.77;5.97;;;17.20;48.80;;;;;;4970990;28;92604;-67
2022/03/04 08:17:56;;;;;;;9.48;6.30;;;17.10;48.80;;;;;;4971145;28;96349;-67
2022/03/04 08:20:22;;;;;;;9.90;6.22;;;17.10;48.80;;;;;;4971341;28;94476;-66
2022/03/04 08:22:47;;;;;;;8.77;5.78;;;17.10;48.90;;;;;;4970438;28;92595;-68
2022/03/04 08:25:13;;;;;;;8.50;5.75;;;17.10;48.90;;;;;;4971825;28;92114;-66
2022/03/04 08:27:40;;;;;;;9.50;6.60;;;17.00;48.90;;;;;;4971182;28;93186;-68
2022/03/04 08:30:07;;;;;;;8.43;6.07;;;17.00;49.00;;;;;;4971205;28;92453;-66
2022/03/04 08:32:34;;;;;;;9.30;6.35;;;17.00;49.00;;;;;;4969555;28;94987;-66
2022/03/04 08:35:02;;;;;;;8.73;6.18;;;17.00;49.00;;;;;;4970608;28;93032;-67
2022/03/04 08:37:28;;;;;;;10.25;6.30;;;17.00;49.00;;;;;;4971515;28;94043;-66
2022/03/04 08:39:55;;;;;;;9.93;6.45;;;16.90;49.00;;;;;;4970477;28;93995;-67
2022/03/04 08:42:20;;;;;;;7.47;6.25;;;16.90;49.00;;;;;;4970690;28;93052;-66
2022/03/04 08:44:46;;;;;;;8.57;6.20;;;16.90;49.00;;;;;;4970257;28;93054;-65
2022/03/04 08:47:11;;;;;;;8.60;5.65;;;16.90;49.10;;;;;;4969875;28;93941;-66
2022/03/04 08:49:37;;;;;;;10.65;6.32;;;16.80;49.00;;;;;;4971358;28;93215;-67
2022/03/04 08:52:04;;;;;;;10.68;6.60;;;16.80;49.00;;;;;;4970976;28;92619;-67
2022/03/04 08:54:30;;;;;;;9.93;6.57;;;16.80;50.10;;;;;;4970444;28;93520;-67
2022/03/04 08:56:56;;;;;;;8.13;6.05;;;16.80;49.20;;;;;;4969089;28;100875;-67
2022/03/04 08:59:22;;;;;;;13.23;6.07;;;16.80;49.10;;;;;;4968981;28;95711;-68
2022/03/04 09:01:48;;;;;;;11.40;7.13;;;16.80;49.10;;;;;;4971218;28;92558;-70
2022/03/04 09:04:14;;;;;;;9.43;6.40;;;16.80;49.10;;;;;;4970889;28;92459;-67
2022/03/04 09:06:40;;;;;;;8.52;6.40;;;16.80;49.20;;;;;;4969246;28;94712;-66
2022/03/04 09:09:07;;;;;;;8.07;6.68;;;16.70;49.10;;;;;;4953541;28;95438;-67
2022/03/04 09:11:32;;;;;;;9.50;6.35;;;16.70;49.10;;;;;;4970544;28;96122;-70
2022/03/04 09:13:58;;;;;;;9.35;6.88;;;16.70;49.10;;;;;;4970807;28;92211;-67
2022/03/04 09:16:24;;;;;;;9.43;6.43;;;16.70;49.10;;;;;;4970080;28;95261;-66
2022/03/04 09:18:49;;;;;;;7.93;6.57;;;16.70;49.10;;;;;;4971377;28;93196;-68
2022/03/04 09:21:16;;;;;;;8.43;6.45;;;16.70;49.20;;;;;;4969612;28;96607;-68
2022/03/04 09:23:41;;;;;;;7.97;6.07;;;16.70;49.10;;;;;;4970827;28;93039;-67
2022/03/04 09:26:07;;;;;;;9.32;6.70;;;16.70;49.10;;;;;;4969925;28;93583;-66
2022/03/04 09:28:33;;;;;;;8.63;6.60;;;16.80;49.10;;;;;;4969057;28;98481;-67
2022/03/04 09:30:58;;;;;;;8.60;6.43;;;16.80;49.10;;;;;;4970291;28;92553;-67
2022/03/04 09:33:24;;;;;;;8.65;6.15;;;16.70;49.10;;;;;;4970002;28;92641;-66
2022/03/04 09:35:49;;;;;;;8.70;6.53;;;16.80;49.10;;;;;;4968925;28;94050;-67
2022/03/04 09:38:15;;;;;;;11.40;6.57;;;16.80;49.10;;;;;;4970294;28;92764;-67
2022/03/04 09:40:41;;;;;;;10.43;7.03;;;16.80;49.10;;;;;;4969956;28;92992;-67
2022/03/04 09:43:08;;;;;;;7.75;6.82;;;16.80;49.10;;;;;;4969784;28;92646;-67
2022/03/04 09:45:34;;;;;;;7.82;6.47;;;16.80;49.10;;;;;;4969312;28;95628;-66
2022/03/04 09:48:04;;;;;;;9.35;6.05;;;16.80;49.10;;;;;;4970994;28;96691;-68
2022/03/04 09:50:35;;;;;;;7.63;6.50;;;16.90;49.10;;;;;;4972335;28;92774;-66
2022/03/04 09:53:16;;;;;;;8.27;6.35;;;16.90;49.20;;;;;;4975489;28;92548;-67
2022/03/04 09:55:44;;;;;;;9.98;6.60;;;16.90;49.10;;;;;;4974614;28;92997;-66
2022/03/04 09:58:10;;;;;;;9.90;6.75;;;16.90;49.00;;;;;;4970485;28;93190;-67
2022/03/04 10:00:37;;;;;;;9.10;5.65;;;16.90;49.00;;;;;;4970956;28;92541;-67
2022/03/04 10:03:04;;;;;;;9.55;6.13;;;17.00;49.00;;;;;;4970241;28;91782;-67
2022/03/04 10:05:30;;;;;;;7.53;6.03;;;17.00;49.00;;;;;;4969928;28;94230;-67
2022/03/04 10:07:55;;;;;;;8.40;6.43;;;17.00;49.00;;;;;;4969447;28;95692;-67
2022/03/04 10:10:22;;;;;;;6.75;5.63;;;17.00;48.90;;;;;;4968410;28;95543;-67
2022/03/04 10:12:57;;;;;;;6.93;5.90;;;17.00;48.90;;;;;;4970274;28;93006;-67
2022/03/04 10:15:25;;;;;;;7.13;6.00;;;17.10;48.90;;;;;;4969839;28;94308;-67
2022/03/04 10:17:59;;;;;;;8.38;6.50;;;17.10;48.90;;;;;;4969592;28;92943;-67
2022/03/04 10:20:36;;;;;;;6.97;5.93;;;17.10;48.80;;;;;;4968915;28;92529;-67
2022/03/04 10:23:18;;;;;;;7.90;5.60;;;17.10;48.70;;;;;;4970603;28;93062;-67
2022/03/04 10:25:45;;;;;;;8.75;6.13;;;17.10;48.80;;;;;;4969742;28;94263;-67
2022/03/04 10:28:12;;;;;;;6.72;5.57;;;17.10;48.80;;;;;;4969742;28;92829;-66
2022/03/04 10:30:41;;;;;;;6.50;5.65;;;17.10;48.70;;;;;;4969744;28;92948;-68
2022/03/04 10:33:14;;;;;;;8.30;6.30;;;17.10;48.70;;;;;;4969287;28;92592;-67
2022/03/04 10:35:40;;;;;;;8.20;5.85;;;17.10;48.70;;;;;;4967331;28;95686;-67
2022/03/04 10:38:25;;;;;;;7.13;5.60;;;17.20;48.80;;;;;;4969231;28;97139;-67
2022/03/04 10:40:51;;;;;;;7.40;5.95;;;17.20;48.70;;;;;;4969304;28;92847;-68
2022/03/04 10:43:23;;;;;;;7.30;5.72;;;17.20;48.70;;;;;;4968175;28;92620;-67
2022/03/04 10:45:59;;;;;;;6.18;5.22;;;17.20;48.80;;;;;;4969048;28;93722;-67
2022/03/04 10:48:25;;;;;;;7.45;5.75;;;17.20;48.70;;;;;;4953426;28;95501;-67
2022/03/04 10:50:55;;;;;;;6.00;5.40;;;17.20;48.70;;;;;;4972465;28;92727;-67
2022/03/04 10:53:27;;;;;;;6.47;5.68;;;17.20;48.80;;;;;;4972588;28;92555;-67
2022/03/04 10:56:00;;;;;;;7.15;5.68;;;17.20;48.70;;;;;;4972354;28;92977;-67
2022/03/04 10:58:31;;;;;;;6.95;5.32;;;17.20;49.80;;;;;;4971545;28;92812;-67
2022/03/04 11:00:58;;;;;;;6.32;5.50;;;17.20;48.80;;;;;;4971627;28;95554;-67
2022/03/04 11:03:26;;;;;;;6.97;5.78;;;17.20;48.70;;;;;;4971176;28;92945;-68
2022/03/04 11:05:57;;;;;;;7.20;6.03;;;17.20;48.80;;;;;;4972005;28;96109;-67
2022/03/04 11:08:23;;;;;;;5.95;4.82;;;17.20;48.70;;;;;;4972071;28;93782;-67
2022/03/04 11:10:50;;;;;;;6.65;5.43;;;17.20;48.70;;;;;;4972082;28;92753;-67
2022/03/04 11:13:16;;;;;;;6.50;5.25;;;17.20;48.70;;;;;;4971695;28;92999;-67
2022/03/04 11:15:43;;;;;;;5.90;5.13;;;17.20;48.70;;;;;;4970708;28;93145;-67
2022/03/04 11:18:11;;;;;;;6.90;5.15;;;17.30;48.70;;;;;;4971333;28;93144;-67
2022/03/04 11:20:39;;;;;;;5.28;4.78;;;17.40;48.70;;;;;;4971184;28;93216;-67
2022/03/04 11:23:06;;;;;;;6.70;4.78;;;17.60;48.40;;;;;;4970567;28;92930;-67
2022/03/04 11:25:44;;;;;;;5.88;4.45;;;17.70;48.30;;;;;;4970921;28;95490;-68
2022/03/04 11:28:15;;;;;;;7.78;4.55;;;17.80;48.10;;;;;;4971538;28;98956;-67
2022/03/04 11:30:56;;;;;;;7.20;4.70;;;17.90;47.90;;;;;;4971957;28;93767;-68
2022/03/04 11:33:32;;;;;;;7.15;4.93;;;18.00;47.80;;;;;;4972050;28;92952;-67
2022/03/04 11:36:02;;;;;;;10.23;5.45;;;18.10;47.60;;;;;;4972959;28;94880;-67
2022/03/04 11:38:49;;;;;;;12.15;5.80;;;18.20;47.50;;;;;;4976325;28;93909;-68
2022/03/04 11:41:23;;;;;;;12.38;6.03;;;18.30;47.60;;;;;;4979495;28;92588;-67
2022/03/04 11:44:00;;;;;;;12.88;6.22;;;18.40;47.60;;;;;;4972413;28;91813;-67
2022/03/04 11:46:27;;;;;;;14.32;6.10;;;18.50;47.70;;;;;;4973263;28;95818;-68
2022/03/04 11:49:27;;;;;;;11.48;5.45;;;18.50;47.70;;;;;;4972354;28;93192;-67
2022/03/04 11:52:11;;;;;;;14.10;5.47;;;18.60;47.90;;;;;;4970055;28;96354;-69
2022/03/04 11:54:38;;;;;;;12.80;5.63;;;18.60;48.10;;;;;;4971305;28;94192;-68
2022/03/04 11:57:24;;;;;;;11.70;5.70;;;18.60;48.20;;;;;;4971569;28;93515;-68
2022/03/04 11:59:50;;;;;;;18.40;5.55;;;18.60;48.40;;;;;;4969032;28;93378;-67
2022/03/04 12:02:47;;;;;;;12.35;4.95;;;18.70;48.40;;;;;;4971295;28;93068;-68
2022/03/04 12:05:19;;;;;;;16.27;5.13;;;18.80;48.60;;;;;;4970355;28;94063;-68
2022/03/04 12:07:56;;;;;;;13.68;5.03;;;18.80;48.60;;;;;;4971620;28;94177;-68
2022/03/04 12:10:27;;;;;;;11.30;5.63;;;18.80;48.60;;;;;;4971453;28;94314;-68
2022/03/04 12:12:59;;;;;;;12.63;5.50;;;18.80;48.70;;;;;;4972058;28;92777;-68
2022/03/04 12:15:24;;;;;;;18.67;5.43;;;18.80;48.60;;;;;;4970447;28;93791;-68
2022/03/04 12:18:04;;;;;;;11.27;4.85;;;18.90;48.60;;;;;;4969425;28;96679;-68
2022/03/04 12:20:51;;;;;;;12.40;5.20;;;18.90;48.60;;;;;;4970171;28;95330;-68
2022/03/04 12:23:33;;;;;;;13.95;5.47;;;18.90;48.50;;;;;;4971085;28;92868;-68
2022/03/04 12:25:58;;;;;;;11.65;4.80;;;19.00;48.50;;;;;;4970688;28;92505;-68
2022/03/04 12:28:32;;;;;;;10.98;4.57;;;19.00;48.50;;;;;;4970072;28;93417;-68
2022/03/04 12:31:01;;;;;;;11.23;4.85;;;19.10;48.40;;;;;;4970820;28;92772;-68
2022/03/04 12:33:31;;;;;;;12.07;4.53;;;19.10;48.30;;;;;;4971440;28;92498;-68
2022/03/04 12:35:58;;;;;;;9.13;4.30;;;19.10;48.20;;;;;;4971462;28;91745;-68
2022/03/04 12:38:36;;;;;;;11.05;5.03;;;19.20;48.20;;;;;;4971126;28;93062;-68
2022/03/04 12:41:03;;;;;;;9.30;4.53;;;19.20;48.20;;;;;;4969866;28;93983;-68
2022/03/04 12:43:29;;;;;;;8.80;4.32;;;19.20;48.10;;;;;;4969817;28;95306;-70
2022/03/04 12:45:54;;;;;;;8.38;4.63;;;19.20;48.00;;;;;;4971209;28;93056;-68
2022/03/04 12:48:22;;;;;;;8.35;4.22;;;19.30;47.90;;;;;;4970232;28;92574;-68
2022/03/04 12:50:48;;;;;;;8.98;4.32;;;19.30;47.90;;;;;;4970603;28;93297;-68
2022/03/04 12:53:32;;;;;;;7.40;4.75;;;19.30;47.90;;;;;;4969808;28;92546;-68
2022/03/04 12:56:01;;;;;;;7.95;4.20;;;19.30;47.80;;;;;;4971986;28;92577;-68
2022/03/04 12:58:37;;;;;;;8.68;4.13;;;19.30;47.80;;;;;;4970535;28;92548;-68
2022/03/04 13:01:04;;;;;;;8.27;4.32;;;19.30;47.70;;;;;;4971413;28;93809;-67
2022/03/04 13:03:31;;;;;;;9.77;4.68;;;19.40;47.70;;;;;;4970478;28;92772;-70
2022/03/04 13:05:57;;;;;;;12.95;4.35;;;19.40;47.60;;;;;;4971521;28;92890;-68
2022/03/04 13:08:23;;;;;;;16.38;4.60;;;19.40;47.70;;;;;;4968461;28;96504;-68
2022/03/04 13:10:49;;;;;;;13.13;4.30;;;19.40;47.60;;;;;;4970079;28;94906;-68
2022/03/04 13:13:14;;;;;;;14.43;4.40;;;19.40;47.90;;;;;;4970081;28;92971;-67
2022/03/04 13:15:52;;;;;;;8.20;4.40;;;19.40;47.90;;;;;;4970346;28;94132;-67
2022/03/04 13:18:21;;;;;;;9.80;4.50;;;19.40;47.90;;;;;;4971113;28;92980;-67
2022/03/04 13:21:07;;;;;;;10.05;4.80;;;19.50;47.90;;;;;;4969746;28;93399;-68
2022/03/04 13:23:33;;;;;;;10.55;4.63;;;19.50;48.00;;;;;;4972119;28;92542;-68
2022/03/04 13:26:11;;;;;;;7.93;4.30;;;19.50;48.00;;;;;;4972838;28;92110;-69
2022/03/04 13:28:57;;;;;;;11.30;4.72;;;19.50;48.00;;;;;;4976983;28;93088;-68
2022/03/04 13:31:28;;;;;;;8.60;4.22;;;19.50;48.10;;;;;;4983478;28;93681;-69
2022/03/04 13:33:59;;;;;;;18.25;4.70;;;19.60;48.20;;;;;;4976358;28;95227;-67
2022/03/04 13:36:42;;;;;;;19.45;4.32;;;19.60;48.40;;;;;;4970187;28;94222;-69
2022/03/04 13:39:31;;;;;;;15.65;5.03;;;19.60;48.70;;;;;;4969926;28;93157;-70
2022/03/04 13:42:18;;;;;;;13.18;4.50;;;19.60;48.90;;;;;;4970870;28;94904;-71
2022/03/04 13:44:50;;;;;;;13.98;4.70;;;19.70;49.30;;;;;;4970181;28;93052;-69
2022/03/04 13:47:30;;;;;;;13.07;4.53;;;19.70;49.50;;;;;;4969889;28;92651;-67
2022/03/04 13:49:57;;;;;;;14.00;4.53;;;19.70;49.70;;;;;;4970201;28;92562;-69
2022/03/04 13:52:23;;;;;;;12.82;4.60;;;19.70;49.90;;;;;;4970018;28;92855;-68
2022/03/04 13:55:01;;;;;;;13.48;4.15;;;19.80;50.20;;;;;;4969507;28;92740;-67
2022/03/04 13:57:34;;;;;;;16.58;4.88;;;19.80;50.40;;;;;;4969429;28;93163;-68
2022/03/04 14:00:20;;;;;;;14.88;4.90;;;19.80;50.60;;;;;;4967778;28;96781;-69
2022/03/04 14:02:50;;;;;;;14.00;4.65;;;19.90;50.70;;;;;;4968857;28;96417;-67
2022/03/04 14:05:27;;;;;;;12.63;4.30;;;19.90;50.60;;;;;;4969364;28;93390;-68
2022/03/04 14:08:05;;;;;;;11.35;4.50;;;19.90;50.60;;;;;;4969519;28;92824;-68
2022/03/04 14:10:32;;;;;;;11.43;4.47;;;20.00;50.60;;;;;;4968713;28;95264;-69
2022/03/04 14:12:57;;;;;;;13.73;4.13;;;20.00;50.60;;;;;;4969395;28;92884;-68
2022/03/04 14:15:23;;;;;;;11.93;4.65;;;20.00;50.60;;;;;;4969315;28;92942;-67
2022/03/04 14:17:54;;;;;;;10.15;4.32;;;20.00;50.30;;;;;;4969728;28;91742;-69
2022/03/04 14:20:21;;;;;;;13.05;4.22;;;20.00;50.40;;;;;;4967487;28;94177;-68
2022/03/04 14:22:47;;;;;;;12.18;4.47;;;20.00;50.30;;;;;;4970487;28;93297;-69
2022/03/04 14:25:13;;;;;;;13.18;4.43;;;20.00;50.30;;;;;;4971615;28;94929;-69
2022/03/04 14:27:42;;;;;;;14.00;4.50;;;20.00;50.40;;;;;;4972733;28;92876;-68
2022/03/04 14:30:12;;;;;;;10.13;4.10;;;19.90;50.50;;;;;;4972586;28;94135;-68
2022/03/04 14:32:38;;;;;;;15.68;4.60;;;19.90;51.60;;;;;;4972129;28;92880;-68
2022/03/04 14:35:05;;;;;;;11.63;4.13;;;19.90;50.70;;;;;;4972795;28;93382;-69